Time;durP1;ratioP1;P1;durP2;ratioP2;P2;SDS_P1;SDS_P2;PMS_P1;PMS_P2;Temp;Humidity;BMP_temperature;BMP_pressure;BME280_temperature;BME280_humidity;BME280_pressure;Samples;Min_cycle;Max_cycle;Signal;HPM_P1;HPM_P2
2021/07/18 00:01:44;;;;;;;9.82;3.40;;;;;;;29.56;48.65;100006.84;144994;571;5002;-84
2021/07/18 00:04:14;;;;;;;9.90;3.15;;;;;;;29.54;48.82;99988.25;144994;594;5002;-82
2021/07/18 00:06:40;;;;;;;6.15;3.50;;;;;;;29.54;48.38;99993.59;144994;578;5002;-85
2021/07/18 00:09:07;;;;;;;5.55;3.00;;;;;;;29.55;48.60;99995.28;144994;643;5002;-84
2021/07/18 00:11:33;;;;;;;6.28;3.42;;;;;;;29.56;48.24;99990.78;144994;598;5002;-83
2021/07/18 00:14:00;;;;;;;8.10;3.05;;;;;;;29.54;48.23;99988.25;144994;616;5002;-84
2021/07/18 00:16:26;;;;;;;4.53;3.20;;;;;;;29.53;48.42;99991.00;144994;579;5002;-84
2021/07/18 00:18:53;;;;;;;5.55;3.10;;;;;;;29.53;47.68;99991.00;144994;599;5002;-84
2021/07/18 00:21:19;;;;;;;7.80;3.17;;;;;;;29.53;47.49;99986.50;144994;572;5002;-83
2021/07/18 00:23:46;;;;;;;4.53;3.25;;;;;;;29.51;47.07;99988.44;144994;569;5002;-82
2021/07/18 00:26:12;;;;;;;6.75;3.10;;;;;;;29.50;47.25;99981.34;144993;568;5002;-83
2021/07/18 00:28:39;;;;;;;4.72;2.90;;;;;;;29.49;46.74;99984.97;144994;629;5002;-82
2021/07/18 00:31:06;;;;;;;5.22;3.05;;;;;;;29.50;47.35;99986.69;144994;583;5002;-83
2021/07/18 00:33:33;;;;;;;5.70;3.58;;;;;;;29.51;47.13;99985.75;144994;571;5002;-83
2021/07/18 00:36:00;;;;;;;5.62;3.33;;;;;;;29.52;47.20;99979.44;144994;675;5002;-83
2021/07/18 00:38:27;;;;;;;7.78;3.50;;;;;;;29.56;47.19;99988.13;144994;566;5002;-84
2021/07/18 00:40:53;;;;;;;9.30;3.00;;;;;;;29.60;47.02;99982.50;144994;582;5002;-84
2021/07/18 00:43:20;;;;;;;4.53;3.60;;;;;;;29.63;46.42;99986.81;144993;570;5002;-85
2021/07/18 00:45:46;;;;;;;5.43;2.97;;;;;;;29.64;46.47;99985.84;144994;577;5002;-83
2021/07/18 00:48:14;;;;;;;8.93;3.60;;;;;;;29.64;46.21;99986.72;144994;579;5002;-83
2021/07/18 00:50:50;;;;;;;4.20;3.17;;;;;;;29.64;46.34;99984.03;144994;564;5002;-83
2021/07/18 00:53:17;;;;;;;4.70;3.10;;;;;;;29.66;45.89;99982.12;144994;596;5002;-84
2021/07/18 00:55:44;;;;;;;6.53;3.83;;;;;;;29.67;46.45;99974.97;144994;569;5002;-83
2021/07/18 00:58:13;;;;;;;7.65;3.20;;;;;;;29.60;46.78;99976.28;144994;631;5002;-82
2021/07/18 01:00:39;;;;;;;4.70;3.28;;;;;;;29.59;46.71;99978.13;144994;643;5002;-83
2021/07/18 01:03:07;;;;;;;5.12;3.40;;;;;;;29.57;46.91;99977.31;144994;599;5002;-84
2021/07/18 01:05:34;;;;;;;3.58;3.00;;;;;;;29.54;46.53;99972.19;144994;592;5002;-83
2021/07/18 01:08:00;;;;;;;7.82;3.53;;;;;;;29.53;46.72;99970.47;144994;634;5002;-84
2021/07/18 01:10:27;;;;;;;7.53;3.03;;;;;;;29.52;46.41;99971.41;144994;570;5002;-83
2021/07/18 01:12:54;;;;;;;5.80;3.12;;;;;;;29.50;46.56;99973.31;144994;590;5002;-83
2021/07/18 01:15:21;;;;;;;5.45;3.22;;;;;;;29.49;45.96;99967.12;144994;613;5002;-82
2021/07/18 01:17:47;;;;;;;4.70;3.22;;;;;;;29.48;45.77;99970.75;144994;592;5002;-82
2021/07/18 01:20:14;;;;;;;4.07;2.95;;;;;;;29.48;45.39;99972.56;144994;570;5002;-84
2021/07/18 01:22:41;;;;;;;5.05;3.25;;;;;;;29.47;45.68;99966.34;144994;676;5002;-83
2021/07/18 01:25:11;;;;;;;5.50;3.30;;;;;;;29.46;46.31;99974.44;144994;569;5002;-82
2021/07/18 01:27:40;;;;;;;5.07;3.37;;;;;;;29.43;45.40;99967.50;144994;576;5002;-83
2021/07/18 01:30:08;;;;;;;5.35;3.17;;;;;;;29.42;45.24;99973.78;144994;633;5002;-83
2021/07/18 01:32:36;;;;;;;5.30;2.90;;;;;;;29.42;45.81;99970.25;144994;575;5002;-83
2021/07/18 01:35:11;;;;;;;5.47;2.92;;;;;;;29.41;45.54;99966.72;144994;588;5002;-89
2021/07/18 01:37:40;;;;;;;7.93;3.10;;;;;;;29.42;45.26;99959.56;144994;588;5002;-82
2021/07/18 01:40:09;;;;;;;5.37;3.10;;;;;;;29.41;45.33;99956.00;144994;599;5002;-84
2021/07/18 01:42:37;;;;;;;6.12;3.33;;;;;;;29.37;45.24;99961.66;144994;641;4567;-83
2021/07/18 01:45:05;;;;;;;7.75;3.10;;;;;;;29.34;45.36;99964.53;144994;695;4572;-84
2021/07/18 01:47:31;;;;;;;9.05;3.28;;;;;;;29.33;44.81;99965.47;144992;608;6002;-83
2021/07/18 01:49:58;;;;;;;5.65;3.30;;;;;;;29.31;44.79;99966.41;144992;604;6002;-83
2021/07/18 01:52:25;;;;;;;4.57;3.00;;;;;;;29.29;44.50;99959.47;144991;571;6002;-82
2021/07/18 01:54:55;;;;;;;8.13;3.00;;;;;;;29.23;44.26;99958.00;144992;563;6002;-83
2021/07/18 01:57:21;;;;;;;5.35;3.00;;;;;;;29.21;44.20;99954.56;144992;708;6002;-83
2021/07/18 01:59:47;;;;;;;6.37;3.17;;;;;;;29.21;43.96;99964.41;144992;572;6002;-83
2021/07/18 02:02:14;;;;;;;6.87;3.03;;;;;;;29.18;43.89;99965.41;144992;569;6002;-83
2021/07/18 02:04:41;;;;;;;4.60;2.58;;;;;;;29.18;43.95;99968.09;144992;630;6002;-84
2021/07/18 02:07:07;;;;;;;5.20;2.75;;;;;;;29.16;43.40;99959.31;144992;693;6002;-83
2021/07/18 02:09:38;;;;;;;5.10;2.78;;;;;;;29.15;43.50;99960.25;144992;577;6002;-83
2021/07/18 02:12:07;;;;;;;5.28;2.72;;;;;;;29.06;43.80;99958.97;144992;570;6002;-82
2021/07/18 02:14:41;;;;;;;4.95;2.78;;;;;;;29.02;43.56;99965.47;144992;662;6002;-82
2021/07/18 02:17:08;;;;;;;6.80;2.70;;;;;;;29.01;43.44;99963.72;144992;562;6002;-81
2021/07/18 02:19:53;;;;;;;4.47;2.90;;;;;;;28.96;42.84;99963.16;144992;597;6002;-81
2021/07/18 02:22:40;;;;;;;4.95;2.78;;;;;;;28.89;43.44;99964.44;144992;591;6002;-83
2021/07/18 02:25:08;;;;;;;5.22;2.80;;;;;;;28.89;43.48;99969.78;144992;586;6002;-83
2021/07/18 02:27:35;;;;;;;8.48;3.55;;;;;;;28.90;43.39;99966.19;144992;572;6002;-83
2021/07/18 02:30:02;;;;;;;4.65;2.97;;;;;;;28.90;42.81;99972.38;144992;579;6002;-82
2021/07/18 02:32:28;;;;;;;5.35;3.05;;;;;;;28.91;43.21;99975.91;144992;579;6002;-83
2021/07/18 02:34:55;;;;;;;5.03;2.62;;;;;;;28.87;43.07;99977.03;144992;570;6002;-82
2021/07/18 02:37:21;;;;;;;8.20;3.37;;;;;;;28.85;42.90;99969.13;144992;567;6002;-83
2021/07/18 02:39:48;;;;;;;4.57;2.90;;;;;;;28.86;42.82;99975.34;144992;594;6002;-82
2021/07/18 02:42:15;;;;;;;4.87;2.95;;;;;;;28.85;42.49;99970.94;144992;586;6002;-83
2021/07/18 02:44:41;;;;;;;4.43;2.97;;;;;;;28.86;42.72;99964.66;144992;582;6002;-84
2021/07/18 02:47:08;;;;;;;5.28;2.78;;;;;;;28.85;42.19;99962.91;144992;595;6002;-84
2021/07/18 02:49:34;;;;;;;9.20;2.75;;;;;;;28.84;42.43;99964.75;144992;584;6002;-83
2021/07/18 02:52:00;;;;;;;5.32;2.67;;;;;;;28.85;42.39;99969.13;144992;580;6002;-83
2021/07/18 02:54:27;;;;;;;4.78;2.90;;;;;;;28.86;42.20;99965.50;144992;581;6002;-83
2021/07/18 02:56:54;;;;;;;4.07;3.12;;;;;;;28.85;41.98;99968.25;144992;595;6002;-83
2021/07/18 02:59:20;;;;;;;3.45;2.78;;;;;;;28.86;42.22;99961.97;144992;594;6002;-83
2021/07/18 03:01:47;;;;;;;6.05;2.83;;;;;;;28.86;42.30;99970.84;144992;649;6002;-85
2021/07/18 03:04:18;;;;;;;3.40;2.70;;;;;;;28.87;41.94;99966.34;144992;584;6002;-82
2021/07/18 03:06:45;;;;;;;5.18;2.78;;;;;;;28.88;42.21;99970.75;144992;635;6002;-84
2021/07/18 03:09:14;;;;;;;4.07;2.85;;;;;;;28.88;41.86;99974.28;144992;575;6002;-83
2021/07/18 03:11:40;;;;;;;8.23;3.25;;;;;;;28.88;42.30;99974.28;144992;570;6002;-82
2021/07/18 03:14:07;;;;;;;8.57;3.20;;;;;;;28.85;41.49;99966.44;144992;624;6002;-83
2021/07/18 03:16:33;;;;;;;4.55;2.95;;;;;;;28.80;42.04;99973.03;144992;580;6002;-82
2021/07/18 03:19:00;;;;;;;7.28;2.67;;;;;;;28.79;42.48;99979.31;144992;570;6002;-84
2021/07/18 03:21:27;;;;;;;7.40;3.00;;;;;;;28.80;41.92;99983.69;144992;577;6002;-83
2021/07/18 03:23:55;;;;;;;5.03;3.40;;;;;;;28.80;41.97;99983.69;144992;579;6002;-84
2021/07/18 03:26:21;;;;;;;6.50;2.95;;;;;;;28.79;42.13;99981.97;144992;576;6002;-82
2021/07/18 03:28:48;;;;;;;5.97;3.45;;;;;;;28.77;42.42;99985.56;144992;596;6002;-84
2021/07/18 03:31:15;;;;;;;7.37;3.10;;;;;;;28.77;42.74;99985.56;144992;692;6002;-83
2021/07/18 03:33:41;;;;;;;7.80;3.08;;;;;;;28.77;42.33;99980.25;144992;593;6002;-83
2021/07/18 03:36:08;;;;;;;7.47;2.90;;;;;;;28.77;42.74;99984.72;144992;620;6002;-81
2021/07/18 03:38:35;;;;;;;4.20;2.70;;;;;;;28.77;42.30;99985.56;144992;591;6002;-82
2021/07/18 03:41:02;;;;;;;9.52;3.60;;;;;;;28.78;42.29;99991.81;144992;564;6002;-83
2021/07/18 03:43:28;;;;;;;4.45;2.78;;;;;;;28.79;42.15;99990.84;144992;565;6002;-83
2021/07/18 03:45:54;;;;;;;6.12;3.10;;;;;;;28.81;42.83;99998.75;144992;585;6002;-83
2021/07/18 03:48:35;;;;;;;5.15;2.90;;;;;;;28.83;42.70;99987.06;144992;591;6003;-83
2021/07/18 03:51:04;;;;;;;6.60;3.37;;;;;;;28.89;42.75;99991.16;144992;589;6002;-83
2021/07/18 03:53:30;;;;;;;7.60;3.45;;;;;;;28.97;42.45;99988.03;144992;589;6002;-84
2021/07/18 03:55:57;;;;;;;6.62;3.42;;;;;;;29.02;42.53;99994.00;144992;565;6002;-84
2021/07/18 03:58:23;;;;;;;6.03;3.12;;;;;;;29.04;42.86;99995.63;144992;609;6002;-83
2021/07/18 04:00:51;;;;;;;4.72;3.25;;;;;;;29.05;42.71;99997.34;144992;576;6002;-83
2021/07/18 04:03:17;;;;;;;8.57;3.12;;;;;;;29.07;42.97;99997.25;144992;592;6002;-82
2021/07/18 04:05:44;;;;;;;10.18;3.65;;;;;;;29.07;42.45;99997.25;144992;583;6002;-82
2021/07/18 04:08:10;;;;;;;4.65;3.30;;;;;;;29.06;42.38;99993.69;144992;585;6002;-84
2021/07/18 04:10:37;;;;;;;4.37;3.08;;;;;;;29.06;42.59;99995.53;144992;566;6002;-82
2021/07/18 04:13:03;;;;;;;6.40;3.22;;;;;;;29.02;42.49;99991.31;144992;576;6002;-82
2021/07/18 04:15:30;;;;;;;7.37;3.20;;;;;;;28.98;43.10;99995.97;144992;630;6002;-84
2021/07/18 04:17:56;;;;;;;7.70;3.33;;;;;;;29.00;43.24;100003.91;144992;570;6002;-82
2021/07/18 04:20:23;;;;;;;4.47;3.30;;;;;;;28.98;43.36;100001.31;144992;589;6002;-84
2021/07/18 04:22:49;;;;;;;9.63;3.40;;;;;;;28.99;43.23;100002.19;144992;576;6002;-84
2021/07/18 04:25:16;;;;;;;8.65;3.17;;;;;;;29.01;43.10;100000.28;144991;626;6002;-84
2021/07/18 04:27:42;;;;;;;6.82;3.28;;;;;;;29.02;43.01;100000.19;144992;573;6002;-85
2021/07/18 04:30:09;;;;;;;5.28;3.10;;;;;;;29.06;43.45;99995.53;144992;571;6002;-83
2021/07/18 04:32:46;;;;;;;7.05;3.30;;;;;;;29.09;43.64;99996.19;144992;583;6002;-83
2021/07/18 04:35:14;;;;;;;7.70;3.30;;;;;;;29.15;43.68;99994.97;144992;579;6002;-83
2021/07/18 04:37:41;;;;;;;3.37;3.00;;;;;;;29.17;43.38;100000.25;144992;572;6002;-83
2021/07/18 04:40:11;;;;;;;8.10;3.40;;;;;;;29.18;43.48;100000.16;144992;613;6002;-83
2021/07/18 04:42:40;;;;;;;5.03;3.33;;;;;;;29.23;43.56;100002.59;144992;586;6002;-83
2021/07/18 04:45:08;;;;;;;5.85;3.62;;;;;;;29.26;43.80;100000.56;144992;579;6002;-85
2021/07/18 04:47:44;;;;;;;8.88;3.28;;;;;;;29.30;43.49;100001.25;144992;593;6002;-83
2021/07/18 04:50:10;;;;;;;9.23;3.70;;;;;;;29.29;43.85;100005.75;144991;591;6002;-83
2021/07/18 04:52:37;;;;;;;5.07;3.42;;;;;;;29.31;43.94;100009.19;144992;587;6002;-83
2021/07/18 04:55:04;;;;;;;6.90;3.70;;;;;;;29.34;43.79;100005.47;144992;658;6003;-85
2021/07/18 04:57:31;;;;;;;5.18;3.65;;;;;;;29.39;44.03;100015.88;144992;674;6002;-83
2021/07/18 04:59:58;;;;;;;6.55;3.40;;;;;;;29.41;44.32;100014.81;144991;657;6002;-83
2021/07/18 05:02:24;;;;;;;6.32;3.62;;;;;;;29.43;44.54;100014.72;144992;596;6002;-84
2021/07/18 05:04:52;;;;;;;9.77;3.80;;;;;;;29.45;44.32;100015.53;144992;567;6002;-84
2021/07/18 05:07:19;;;;;;;10.38;3.83;;;;;;;29.47;44.59;100019.81;144992;703;6002;-84
2021/07/18 05:09:45;;;;;;;7.62;3.55;;;;;;;29.52;44.29;100026.69;144992;582;6002;-83
2021/07/18 05:12:11;;;;;;;9.38;3.70;;;;;;;29.55;44.34;100024.69;144992;564;6002;-83
2021/07/18 05:14:38;;;;;;;6.22;3.60;;;;;;;29.60;44.32;100024.41;144992;581;6002;-83
2021/07/18 05:17:22;;;;;;;7.57;3.58;;;;;;;29.63;45.10;100026.91;144992;583;6002;-83
2021/07/18 05:19:53;;;;;;;6.18;3.45;;;;;;;29.70;44.65;100027.41;144992;646;6002;-84
2021/07/18 05:22:19;;;;;;;7.47;3.33;;;;;;;29.75;44.93;100031.53;144992;570;6002;-85
2021/07/18 05:24:45;;;;;;;6.47;3.60;;;;;;;29.79;44.53;100032.22;144992;659;6002;-84
2021/07/18 05:27:12;;;;;;;6.20;3.50;;;;;;;29.86;44.96;100036.25;144992;623;6002;-84
2021/07/18 05:29:38;;;;;;;6.15;3.70;;;;;;;29.92;45.04;100038.50;144992;574;6002;-83
2021/07/18 05:32:06;;;;;;;7.22;3.70;;;;;;;29.96;45.15;100033.84;144992;589;6002;-83
2021/07/18 05:34:33;;;;;;;8.98;4.10;;;;;;;30.00;44.90;100038.94;144992;623;6002;-84
2021/07/18 05:36:59;;;;;;;8.27;3.53;;;;;;;30.04;45.07;100036.91;144992;639;6002;-84
2021/07/18 05:39:26;;;;;;;7.45;3.67;;;;;;;30.05;45.43;100037.75;144992;586;6002;-83
2021/07/18 05:41:52;;;;;;;6.35;3.80;;;;;;;30.06;45.61;100035.00;144992;575;6002;-83
2021/07/18 05:44:19;;;;;;;7.50;3.80;;;;;;;30.09;46.16;100040.16;144992;608;6002;-84
2021/07/18 05:46:45;;;;;;;5.80;3.65;;;;;;;30.16;46.23;100032.59;144992;574;6002;-84
2021/07/18 05:49:12;;;;;;;7.68;3.65;;;;;;;30.25;45.79;100034.69;144992;597;6002;-85
2021/07/18 05:51:38;;;;;;;6.93;3.83;;;;;;;30.33;46.03;100029.72;144992;566;6002;-85
2021/07/18 05:54:05;;;;;;;7.20;3.58;;;;;;;30.41;47.45;100031.09;144992;569;6002;-83
2021/07/18 05:56:31;;;;;;;5.87;3.40;;;;;;;30.47;46.12;100020.84;144991;565;6002;-83
2021/07/18 05:58:58;;;;;;;8.40;3.75;;;;;;;30.53;46.21;100024.94;144992;600;6002;-84
2021/07/18 06:01:28;;;;;;;7.62;3.53;;;;;;;30.60;46.95;100028.94;144992;595;6002;-82
2021/07/18 06:03:57;;;;;;;5.22;3.62;;;;;;;30.67;46.74;100032.94;144992;601;6002;-82
2021/07/18 06:06:24;;;;;;;4.78;3.30;;;;;;;30.78;46.16;100037.56;144992;585;6002;-82
2021/07/18 06:08:50;;;;;;;6.20;3.80;;;;;;;30.87;46.28;100034.28;144992;586;6002;-83
2021/07/18 06:11:17;;;;;;;5.37;3.90;;;;;;;30.91;46.40;100035.81;144992;602;6002;-82
2021/07/18 06:13:43;;;;;;;8.20;3.72;;;;;;;30.89;46.43;100037.75;144992;567;6002;-83
2021/07/18 06:16:10;;;;;;;6.85;3.85;;;;;;;30.88;46.89;100032.50;144992;647;6002;-83
2021/07/18 06:18:36;;;;;;;8.63;3.97;;;;;;;30.97;46.76;100036.41;144992;592;6002;-83
2021/07/18 06:21:03;;;;;;;6.78;4.00;;;;;;;31.08;46.53;100032.03;144992;595;6002;-83
2021/07/18 06:23:30;;;;;;;6.00;4.00;;;;;;;31.17;46.27;100038.59;144992;564;6002;-82
2021/07/18 06:25:56;;;;;;;9.30;4.43;;;;;;;31.25;46.01;100040.78;144992;622;6002;-83
2021/07/18 06:28:23;;;;;;;8.63;4.28;;;;;;;31.29;46.53;100043.16;144992;566;6002;-82
2021/07/18 06:30:50;;;;;;;6.62;4.12;;;;;;;31.35;46.04;100044.53;144992;592;6002;-84
2021/07/18 06:33:17;;;;;;;5.62;3.95;;;;;;;31.39;46.28;100045.22;144992;581;6002;-83
2021/07/18 06:35:43;;;;;;;9.10;4.28;;;;;;;31.46;45.98;100043.81;144992;582;6002;-83
2021/07/18 06:38:10;;;;;;;6.70;4.30;;;;;;;31.46;45.99;100041.97;144992;571;6002;-83
2021/07/18 06:40:38;;;;;;;7.12;4.28;;;;;;;31.45;46.75;100045.66;144992;626;6002;-85
2021/07/18 06:43:04;;;;;;;5.90;4.20;;;;;;;31.54;45.93;100046.84;144992;569;6002;-84
2021/07/18 06:45:48;;;;;;;9.90;4.25;;;;;;;31.65;46.12;100046.97;144992;628;6002;-84
2021/07/18 06:48:18;;;;;;;6.30;4.30;;;;;;;31.70;45.89;100043.97;144992;566;6002;-83
2021/07/18 06:50:44;;;;;;;9.63;4.93;;;;;;;31.77;45.67;100039.03;144992;627;6002;-84
2021/07/18 06:53:11;;;;;;;8.68;4.47;;;;;;;31.81;45.44;100045.91;144992;602;6002;-84
2021/07/18 06:55:37;;;;;;;10.80;4.87;;;;;;;31.86;45.29;100048.28;144991;575;6002;-83
2021/07/18 06:58:04;;;;;;;6.90;4.90;;;;;;;31.96;45.76;100041.28;144992;657;6002;-83
2021/07/18 07:00:31;;;;;;;7.00;4.68;;;;;;;32.08;45.14;100036.87;144992;576;6002;-83
2021/07/18 07:02:58;;;;;;;7.90;4.75;;;;;;;32.15;45.06;100041.75;144992;623;6002;-86
2021/07/18 07:05:26;;;;;;;10.10;5.15;;;;;;;32.21;45.17;100042.28;144992;565;6002;-85
2021/07/18 07:07:53;;;;;;;9.48;4.47;;;;;;;32.01;45.24;100036.47;144992;584;6002;-84
2021/07/18 07:10:20;;;;;;;5.55;4.50;;;;;;;31.75;45.87;100031.13;144992;652;6002;-83
2021/07/18 07:12:48;;;;;;;6.87;4.10;;;;;;;31.75;45.50;100036.47;144992;588;6011;-84
2021/07/18 07:15:16;;;;;;;7.47;4.53;;;;;;;31.77;45.48;100039.03;144992;693;6002;-84
2021/07/18 07:17:42;;;;;;;8.63;4.68;;;;;;;31.71;45.10;100037.66;144992;576;6002;-84
2021/07/18 07:20:11;;;;;;;5.62;4.50;;;;;;;31.55;45.73;100029.81;144992;587;6002;-84
2021/07/18 07:22:39;;;;;;;8.80;4.30;;;;;;;31.42;46.65;100031.59;144992;577;6002;-83
2021/07/18 07:25:16;;;;;;;7.25;4.40;;;;;;;31.35;46.21;100023.09;144992;635;6002;-84
2021/07/18 07:27:43;;;;;;;6.65;4.50;;;;;;;31.28;46.42;100027.16;144992;615;6002;-83
2021/07/18 07:30:24;;;;;;;9.80;4.47;;;;;;;31.28;47.67;100021.81;144992;565;6002;-84
2021/07/18 07:32:55;;;;;;;7.15;4.12;;;;;;;31.33;46.85;100022.34;144992;573;6002;-84
2021/07/18 07:35:22;;;;;;;6.68;4.40;;;;;;;31.20;46.96;100016.13;144992;634;6002;-82
2021/07/18 07:37:49;;;;;;;7.18;4.57;;;;;;;31.28;46.87;100008.41;144992;587;6002;-84
2021/07/18 07:40:18;;;;;;;9.50;4.30;;;;;;;31.23;46.95;100010.53;144992;590;6002;-81
2021/07/18 07:42:45;;;;;;;6.57;4.55;;;;;;;31.22;47.08;100003.44;144992;625;6002;-85
2021/07/18 07:45:14;;;;;;;6.87;4.43;;;;;;;31.16;47.84;100011.91;144992;565;6002;-85
2021/07/18 07:47:41;;;;;;;6.85;4.47;;;;;;;31.33;47.16;100005.41;144992;626;6002;-83
2021/07/18 07:50:12;;;;;;;6.78;3.80;;;;;;;31.18;48.40;100000.13;144992;575;6002;-83
2021/07/18 07:52:39;;;;;;;9.32;4.30;;;;;;;31.12;50.55;100008.59;144992;588;6002;-84
2021/07/18 07:55:07;;;;;;;6.50;3.97;;;;;;;30.67;53.55;100011.50;144992;616;6002;-84
2021/07/18 07:57:34;;;;;;;9.02;4.10;;;;;;;30.83;51.62;100002.44;144992;581;6002;-83
2021/07/18 08:00:03;;;;;;;10.13;4.50;;;;;;;30.60;52.82;100004.81;144991;569;6002;-84
2021/07/18 08:02:30;;;;;;;7.97;3.95;;;;;;;30.69;51.57;99993.50;144993;574;6002;-84
2021/07/18 08:04:56;;;;;;;8.13;4.05;;;;;;;30.75;51.25;99992.22;144993;577;6002;-84
2021/07/18 08:07:22;;;;;;;6.78;3.87;;;;;;;30.83;51.29;99997.97;144992;677;6002;-83
2021/07/18 08:09:49;;;;;;;6.30;3.80;;;;;;;30.69;52.17;99988.16;144993;627;6002;-84
2021/07/18 08:12:16;;;;;;;6.20;3.95;;;;;;;30.75;51.41;99989.56;144993;636;6002;-83
2021/07/18 08:14:48;;;;;;;12.75;4.22;;;;;;;30.90;51.07;99993.91;144993;624;6002;-82
2021/07/18 08:17:15;;;;;;;8.93;4.00;;;;;;;30.78;50.79;100001.91;144993;589;6002;-84
2021/07/18 08:19:42;;;;;;;8.10;4.03;;;;;;;30.81;50.90;99991.81;144993;587;6002;-84
2021/07/18 08:22:09;;;;;;;9.32;3.78;;;;;;;30.82;50.23;100000.75;144993;591;6002;-83
2021/07/18 08:24:36;;;;;;;8.63;3.90;;;;;;;30.71;50.49;100013.00;144993;610;6002;-83
2021/07/18 08:27:03;;;;;;;5.32;3.67;;;;;;;30.62;50.93;100008.25;144993;619;6002;-82
2021/07/18 08:29:30;;;;;;;7.28;3.92;;;;;;;30.57;51.90;100008.56;144993;615;6002;-83
2021/07/18 08:31:59;;;;;;;7.32;3.58;;;;;;;30.67;51.32;100014.19;144993;565;6002;-84
2021/07/18 08:34:26;;;;;;;8.68;4.20;;;;;;;30.66;51.44;100025.84;144992;635;6002;-83
2021/07/18 08:36:53;;;;;;;5.28;3.72;;;;;;;30.63;51.35;100023.37;144992;578;6002;-84
2021/07/18 08:39:20;;;;;;;8.32;3.92;;;;;;;30.52;51.22;100017.84;144991;648;6002;-83
2021/07/18 08:41:47;;;;;;;6.43;3.87;;;;;;;30.44;51.77;100028.22;144992;585;6002;-82
2021/07/18 08:44:15;;;;;;;6.80;3.70;;;;;;;30.37;51.21;100038.44;144992;593;6002;-84
2021/07/18 08:46:42;;;;;;;4.72;3.70;;;;;;;30.34;51.81;100035.94;144992;594;6002;-82
2021/07/18 08:49:10;;;;;;;6.62;3.72;;;;;;;30.41;51.81;100031.09;144993;569;6002;-82
2021/07/18 08:51:37;;;;;;;6.43;4.03;;;;;;;30.34;52.01;100025.25;144993;613;6002;-84
2021/07/18 08:54:05;;;;;;;4.55;3.40;;;;;;;30.50;51.68;100022.47;144993;583;6002;-82
2021/07/18 08:56:32;;;;;;;7.30;4.18;;;;;;;30.60;52.01;100015.53;144993;634;6002;-82
2021/07/18 08:59:18;;;;;;;6.12;3.95;;;;;;;30.67;50.58;100019.53;144993;581;6002;-82
2021/07/18 09:01:46;;;;;;;8.63;4.07;;;;;;;30.72;50.69;100020.09;144993;639;6002;-84
2021/07/18 09:04:13;;;;;;;4.57;3.83;;;;;;;30.63;50.27;100015.34;144993;657;6002;-82
2021/07/18 09:06:44;;;;;;;5.75;4.15;;;;;;;30.70;50.53;100016.66;144993;580;6002;-84
2021/07/18 09:09:15;;;;;;;8.18;4.70;;;;;;;30.73;51.14;100005.75;144993;649;6002;-84
2021/07/18 09:11:42;;;;;;;18.30;11.90;;;;;;;30.82;51.19;100015.00;144993;583;6002;-83
2021/07/18 09:14:09;;;;;;;17.60;11.65;;;;;;;30.97;50.24;100015.81;144993;589;6002;-84
2021/07/18 09:16:41;;;;;;;5.28;3.60;;;;;;;30.99;50.38;100018.38;144993;575;6002;-83
2021/07/18 09:19:40;;;;;;;7.05;3.72;;;;;;;30.96;49.65;100021.25;144993;569;6002;-81
2021/07/18 09:22:15;;;;;;;7.35;4.90;;;;;;;30.70;50.60;100024.72;144993;567;6004;-84
2021/07/18 09:24:59;;;;;;;5.40;4.25;;;;;;;30.82;50.76;100025.72;144993;566;6002;-85
2021/07/18 09:27:30;;;;;;;10.55;6.20;;;;;;;30.89;50.58;100020.78;144993;571;6002;-83
2021/07/18 09:30:04;;;;;;;8.45;4.57;;;;;;;30.90;52.60;100019.84;144993;649;6002;-85
2021/07/18 09:32:34;;;;;;;6.05;4.35;;;;;;;31.11;50.54;100029.16;144992;645;6002;-82
2021/07/18 09:35:05;;;;;;;7.47;4.20;;;;;;;31.10;52.38;100030.13;144993;605;6002;-86
2021/07/18 09:37:42;;;;;;;10.32;6.55;;;;;;;30.93;52.71;100025.00;144993;579;6002;-85
2021/07/18 09:40:20;;;;;;;5.75;4.50;;;;;;;30.98;51.70;100022.91;144993;619;6002;-83
2021/07/18 09:42:59;;;;;;;8.38;4.60;;;;;;;31.06;51.73;100025.06;144994;615;5002;-85
2021/07/18 09:45:30;;;;;;;7.47;4.43;;;;;;;31.11;51.41;100021.09;144994;577;5002;-86
2021/07/18 09:48:07;;;;;;;8.32;4.62;;;;;;;31.06;51.52;100025.06;144994;605;5002;-83
2021/07/18 09:50:44;;;;;;;7.62;4.70;;;;;;;31.13;51.07;100021.00;144994;570;5002;-83
2021/07/18 09:53:22;;;;;;;9.07;4.82;;;;;;;31.05;51.19;100023.34;144994;602;5002;-83
2021/07/18 09:56:16;;;;;;;6.43;4.53;;;;;;;31.19;50.98;100019.75;144994;564;5002;-84
2021/07/18 09:58:58;;;;;;;6.22;4.28;;;;;;;31.09;49.68;100025.72;144994;664;5002;-84
2021/07/18 10:01:25;;;;;;;9.18;4.37;;;;;;;31.07;49.81;100016.94;144994;660;5002;-85
2021/07/18 10:03:54;;;;;;;6.53;4.37;;;;;;;31.14;50.49;100024.56;144994;615;5002;-84
2021/07/18 10:06:25;;;;;;;7.82;4.20;;;;;;;30.99;50.90;100013.91;144994;597;5002;-83
2021/07/18 10:08:57;;;;;;;7.53;4.90;;;;;;;31.13;50.51;100012.97;144994;587;5002;-85
2021/07/18 10:11:34;;;;;;;8.70;4.68;;;;;;;31.25;49.29;99998.72;144994;593;5002;-85
2021/07/18 10:14:02;;;;;;;9.07;5.00;;;;;;;31.28;49.03;99997.69;144994;595;5002;-91
2021/07/18 10:16:32;;;;;;;10.35;5.05;;;;;;;31.37;48.85;99997.06;144994;617;5002;-84
2021/07/18 10:18:59;;;;;;;6.68;5.25;;;;;;;31.46;49.50;100007.13;144994;665;5002;-83
2021/07/18 10:21:31;;;;;;;10.98;5.57;;;;;;;31.53;49.13;99996.88;144994;571;5002;-82
2021/07/18 10:23:58;;;;;;;8.80;5.95;;;;;;;31.35;49.37;99992.75;144994;610;5002;-82
2021/07/18 10:26:27;;;;;;;9.57;5.93;;;;;;;31.28;50.23;99989.62;144994;578;5002;-85
2021/07/18 10:28:56;;;;;;;8.57;6.50;;;;;;;31.42;50.14;99984.19;144994;625;5002;-86
2021/07/18 10:31:37;;;;;;;9.38;6.45;;;;;;;31.31;52.34;99989.44;144994;565;5002;-82
2021/07/18 10:34:06;;;;;;;10.05;7.07;;;;;;;31.44;50.59;99981.38;144994;665;5002;-84
2021/07/18 10:36:33;;;;;;;10.57;8.45;;;;;;;31.29;52.64;99972.56;144994;606;5002;-82
2021/07/18 10:39:00;;;;;;;10.02;8.00;;;;;;;31.28;53.45;99968.19;144994;584;5002;-83
2021/07/18 10:41:46;;;;;;;13.68;10.35;;;;;;;31.63;52.39;99963.06;144994;672;5002;-83
2021/07/18 10:44:18;;;;;;;11.18;9.77;;;;;;;31.80;54.34;99975.31;144994;569;5002;-82
2021/07/18 10:46:55;;;;;;;15.27;11.50;;;;;;;31.74;54.82;99970.37;144994;584;5002;-84
2021/07/18 10:49:58;;;;;;;17.33;12.30;;;;;;;31.55;55.91;99965.44;144994;583;5002;-86
2021/07/18 10:52:31;;;;;;;14.23;12.25;;;;;;;31.68;53.63;99954.69;144994;572;5005;-82
2021/07/18 10:54:58;;;;;;;13.52;12.10;;;;;;;31.77;53.01;99954.06;144994;666;5004;-83
2021/07/18 10:57:33;;;;;;;16.50;12.98;;;;;;;31.81;52.05;99949.31;144994;571;5004;-83
2021/07/18 11:00:26;;;;;;;12.57;11.27;;;;;;;32.04;51.72;99946.81;144994;628;5005;-84
2021/07/18 11:03:11;;;;;;;17.80;14.55;;;;;;;32.22;51.53;99934.75;144994;707;5004;-83
2021/07/18 11:05:39;;;;;;;;;;;;;;;32.38;50.24;99931.81;144998;912;5002;-83
2021/07/18 11:08:06;;;;;;;18.27;12.85;;;;;;;32.51;50.30;99934.44;144998;562;5003;-84
2021/07/18 11:10:47;;;;;;;11.57;10.38;;;;;;;32.59;46.95;99926.66;144994;577;5002;-82
2021/07/18 11:13:13;;;;;;;12.93;9.98;;;;;;;32.70;48.50;99925.87;144994;656;5002;-85
2021/07/18 11:15:40;;;;;;;12.85;10.60;;;;;;;32.72;47.48;99935.56;144994;570;5002;-81
2021/07/18 11:18:15;;;;;;;12.25;11.00;;;;;;;32.54;46.68;99924.31;144994;647;5002;-85
2021/07/18 11:21:07;;;;;;;13.27;11.45;;;;;;;32.59;46.86;99917.75;144994;580;5002;-85
2021/07/18 11:23:42;;;;;;;15.40;11.60;;;;;;;32.52;47.60;99917.34;144994;570;5004;-84
2021/07/18 11:26:10;;;;;;;15.25;11.43;;;;;;;32.55;47.51;99917.97;144993;568;5004;-83
2021/07/18 11:28:40;;;;;;;13.50;10.48;;;;;;;32.51;47.21;99910.25;144994;621;5002;-83
2021/07/18 11:31:28;;;;;;;11.80;10.55;;;;;;;32.54;46.56;99910.88;144994;570;5002;-82
2021/07/18 11:34:00;;;;;;;12.85;10.68;;;;;;;32.60;46.45;99901.50;144994;733;5004;-84
2021/07/18 11:36:54;;;;;;;14.27;11.77;;;;;;;32.55;46.42;99909.91;144994;699;5004;-84
2021/07/18 11:39:22;;;;;;;14.83;13.20;;;;;;;32.47;47.41;99896.22;144994;578;5002;-83
2021/07/18 11:41:50;;;;;;;16.12;11.68;;;;;;;32.48;46.50;99902.44;144994;577;5004;-82
2021/07/18 11:44:18;;;;;;;13.88;11.07;;;;;;;32.53;45.14;99911.88;144994;590;5002;-84
2021/07/18 11:46:47;;;;;;;17.27;10.05;;;;;;;32.51;43.79;99911.09;144994;621;5002;-84